createdAt,value
2018-08-10T00:01:58.632Z,100171.36
2018-08-10T00:04:26.995Z,100172.27
2018-08-10T00:06:55.597Z,100177.95
2018-08-10T00:09:23.964Z,100179.72
2018-08-10T00:11:52.709Z,100187.62
2018-08-10T00:14:21.052Z,100204.63
2018-08-10T00:16:49.430Z,100215.52
2018-08-10T00:19:17.828Z,100220.08
2018-08-10T00:21:46.219Z,100229.19
2018-08-10T00:24:14.591Z,100232.83
2018-08-10T00:26:43.022Z,100239.81
2018-08-10T00:29:11.448Z,100250.87
2018-08-10T00:31:39.827Z,100249.25
2018-08-10T00:34:08.184Z,100254.91
2018-08-10T00:36:36.596Z,100257.89
2018-08-10T00:39:09.092Z,100274.08
2018-08-10T00:41:38.016Z,100273.34
2018-08-10T00:44:06.447Z,100268.64
2018-08-10T00:46:34.854Z,100276.14
2018-08-10T00:49:03.198Z,100280.42
2018-08-10T00:51:31.609Z,100281.73
2018-08-10T00:54:00.069Z,100282.26
2018-08-10T00:56:28.478Z,100283.77
2018-08-10T00:58:56.877Z,100288.77
2018-08-10T01:01:25.302Z,100286.53
2018-08-10T01:03:53.697Z,100285.90
2018-08-10T01:06:22.126Z,100291.94
2018-08-10T01:08:50.564Z,100291.83
2018-08-10T01:11:18.991Z,100301.59
2018-08-10T01:13:47.674Z,100299.91
2018-08-10T01:16:16.004Z,100289.42
2018-08-10T01:18:44.392Z,100303.45
2018-08-10T01:21:12.804Z,100311.05
2018-08-10T01:23:41.139Z,100307.87
2018-08-10T01:26:09.592Z,100311.30
2018-08-10T01:28:38.062Z,100307.95
2018-08-10T01:31:06.435Z,100307.28
2018-08-10T01:33:34.824Z,100308.03
2018-08-10T01:36:03.204Z,100314.33
2018-08-10T01:38:31.631Z,100323.98
2018-08-10T01:40:59.984Z,100321.45
2018-08-10T01:43:28.386Z,100334.53
2018-08-10T01:45:56.797Z,100337.44
2018-08-10T01:48:25.218Z,100342.70
2018-08-10T01:50:53.611Z,100340.25
2018-08-10T01:53:21.954Z,100351.28
2018-08-10T01:55:50.347Z,100357.34
2018-08-10T01:58:18.711Z,100367.98
2018-08-10T02:00:47.076Z,100360.18
2018-08-10T02:03:15.460Z,100377.38
2018-08-10T02:05:43.867Z,100370.64
2018-08-10T02:08:12.279Z,100371.36
2018-08-10T02:10:40.658Z,100369.63
2018-08-10T02:13:09.035Z,100385.58
2018-08-10T02:15:37.472Z,100380.86
2018-08-10T02:18:05.839Z,100386.27
2018-08-10T02:20:34.278Z,100390.69
2018-08-10T02:23:03.122Z,100396.27
2018-08-10T02:25:31.636Z,100402.21
2018-08-10T02:27:59.983Z,100413.27
2018-08-10T02:30:28.348Z,100414.59
2018-08-10T02:32:56.728Z,100404.60
2018-08-10T02:35:25.064Z,100415.51
2018-08-10T02:37:53.422Z,100418.18
2018-08-10T02:40:55.551Z,100421.53
2018-08-10T02:43:23.968Z,100418.84
2018-08-10T02:45:52.336Z,100416.48
2018-08-10T02:48:20.690Z,100413.06
2018-08-10T02:50:49.183Z,100411.30
2018-08-10T02:53:17.559Z,100410.70
2018-08-10T02:55:45.923Z,100415.72
2018-08-10T02:58:14.295Z,100418.31
2018-08-10T03:00:42.612Z,100423.97
2018-08-10T03:03:10.997Z,100428.09
2018-08-10T03:05:39.437Z,100422.22
2018-08-10T03:08:07.837Z,100435.70
2018-08-10T03:10:36.484Z,100450.05
2018-08-10T03:13:04.816Z,100469.80
2018-08-10T03:15:33.178Z,100493.19
2018-08-10T03:18:03.011Z,100508.03
2018-08-10T03:20:31.344Z,100514.14
2018-08-10T03:22:59.913Z,100521.17
2018-08-10T03:25:28.469Z,100518.03
2018-08-10T03:27:56.819Z,100516.50
2018-08-10T03:30:25.215Z,100514.66
2018-08-10T03:32:53.621Z,100520.38
2018-08-10T03:35:22.013Z,100522.36
2018-08-10T03:37:50.415Z,100515.64
2018-08-10T03:40:18.777Z,100524.59
2018-08-10T03:42:47.112Z,100523.34
2018-08-10T03:45:15.471Z,100519.92
2018-08-10T03:47:43.813Z,100525.07
2018-08-10T03:50:13.643Z,100528.06
2018-08-10T03:52:42.594Z,100538.82
2018-08-10T03:55:11.328Z,100539.11
2018-08-10T03:57:40.142Z,100548.27
2018-08-10T04:00:10.644Z,100546.61
2018-08-10T04:02:39.644Z,100536.63
2018-08-10T04:05:08.756Z,100544.81
2018-08-10T04:07:37.149Z,100551.15
2018-08-10T04:10:06.336Z,100543.64
2018-08-10T04:12:35.191Z,100546.64
2018-08-10T04:15:03.670Z,100552.27
2018-08-10T04:17:32.048Z,100554.14
2018-08-10T04:20:00.854Z,100557.75
2018-08-10T04:22:29.339Z,100562.63
2018-08-10T04:24:57.759Z,100569.92
2018-08-10T04:27:26.173Z,100575.89
2018-08-10T04:29:54.933Z,100581.52
2018-08-10T04:32:23.628Z,100581.06
2018-08-10T04:34:51.973Z,100577.18
2018-08-10T04:37:20.375Z,100594.52
2018-08-10T04:39:49.038Z,100593.75
2018-08-10T04:42:17.626Z,100599.84
2018-08-10T04:44:46.574Z,100609.02
2018-08-10T04:47:14.957Z,100628.42
2018-08-10T04:49:43.312Z,100627.02
2018-08-10T04:52:11.683Z,100630.70
2018-08-10T04:54:40.035Z,100630.38
2018-08-10T04:57:08.562Z,100637.37
2018-08-10T04:59:37.377Z,100654.19
2018-08-10T05:02:06.682Z,100652.55
2018-08-10T05:04:35.063Z,100665.74
2018-08-10T05:07:03.659Z,100681.62
2018-08-10T05:09:31.986Z,100673.39
2018-08-10T05:12:00.444Z,100680.59
2018-08-10T05:14:28.834Z,100678.11
2018-08-10T05:16:57.170Z,100681.59
2018-08-10T05:19:25.566Z,100692.09
2018-08-10T05:21:54.184Z,100698.31
2018-08-10T05:24:22.585Z,100705.82
2018-08-10T05:26:50.956Z,100713.07
2018-08-10T05:29:19.360Z,100725.48
2018-08-10T05:31:47.679Z,100720.68
2018-08-10T05:34:16.039Z,100720.38
2018-08-10T05:36:44.387Z,100726.54
2018-08-10T05:39:13.219Z,100727.95
2018-08-10T05:41:41.700Z,100734.54
2018-08-10T05:44:10.070Z,100735.23
2018-08-10T05:46:38.710Z,100737.63
2018-08-10T05:49:07.250Z,100750.38
2018-08-10T05:51:35.588Z,100746.54
2018-08-10T05:54:04.092Z,100747.41
2018-08-10T05:56:32.727Z,100756.22
2018-08-10T05:59:01.095Z,100764.88
2018-08-10T06:01:29.772Z,100781.46
2018-08-10T06:03:58.321Z,100777.88
2018-08-10T06:06:26.484Z,100790.12
2018-08-10T06:08:54.854Z,100797.89
2018-08-10T06:11:23.295Z,100794.27
2018-08-10T06:13:51.691Z,100797.78
2018-08-10T06:16:20.006Z,100801.58
2018-08-10T06:18:48.344Z,100793.86
2018-08-10T06:21:16.683Z,100797.18
2018-08-10T06:23:45.235Z,100801.78
2018-08-10T06:26:13.589Z,100815.72
2018-08-10T06:28:41.875Z,100817.33
2018-08-10T06:31:10.261Z,100826.09
2018-08-10T06:33:38.641Z,100826.41
2018-08-10T06:36:07.030Z,100831.66
2018-08-10T06:38:35.415Z,100839.17
2018-08-10T06:41:03.784Z,100853.16
2018-08-10T06:43:32.225Z,100847.05
2018-08-10T06:46:00.616Z,100847.67
2018-08-10T06:48:28.931Z,100863.30
2018-08-10T06:50:57.338Z,100871.09
2018-08-10T06:53:25.686Z,100886.41
2018-08-10T06:55:54.146Z,100893.67
2018-08-10T06:58:22.502Z,100897.87
2018-08-10T07:00:51.914Z,100912.28
2018-08-10T07:03:20.331Z,100914.96
2018-08-10T07:05:48.754Z,100916.34
2018-08-10T07:08:17.148Z,100920.66
2018-08-10T07:10:45.592Z,100918.30
2018-08-10T07:13:13.996Z,100925.39
2018-08-10T07:15:42.292Z,100921.37
2018-08-10T07:18:10.668Z,100919.82
2018-08-10T07:20:39.020Z,100925.58
2018-08-10T07:23:07.381Z,100939.77
2018-08-10T07:25:35.890Z,100939.52
2018-08-10T07:28:04.239Z,100948.23
2018-08-10T07:30:32.593Z,100945.13
2018-08-10T07:33:00.981Z,100954.40
2018-08-10T07:35:29.314Z,100962.72
2018-08-10T07:37:57.729Z,100956.34
2018-08-10T07:40:26.112Z,100963.81
2018-08-10T07:42:54.527Z,100961.50
2018-08-10T07:45:22.875Z,100968.09
2018-08-10T07:47:51.258Z,100969.44
2018-08-10T07:50:19.561Z,100972.03
2018-08-10T07:52:47.990Z,100979.41
2018-08-10T07:55:16.447Z,100964.09
2018-08-10T07:57:44.835Z,100968.33
2018-08-10T08:00:13.256Z,100976.71
2018-08-10T08:02:41.628Z,100979.66
2018-08-10T08:05:10.029Z,100972.70
2018-08-10T08:07:38.345Z,100975.69
2018-08-10T08:10:07.051Z,100977.92
2018-08-10T08:12:35.412Z,100985.30
2018-08-10T08:15:03.973Z,100982.67
2018-08-10T08:17:32.288Z,100993.55
2018-08-10T08:20:00.982Z,100997.78
2018-08-10T08:22:29.363Z,100997.99
2018-08-10T08:24:57.680Z,100990.06
2018-08-10T08:27:26.043Z,100995.53
2018-08-10T08:29:54.417Z,100999.44
2018-08-10T08:32:22.796Z,101005.09
2018-08-10T08:34:51.367Z,100999.20
2018-08-10T08:37:19.616Z,101001.80
2018-08-10T08:40:23.130Z,101007.31
2018-08-10T08:42:51.967Z,101015.61
2018-08-10T08:46:07.840Z,101021.42
2018-08-10T08:48:45.625Z,101018.92
2018-08-10T08:51:15.788Z,101019.06
2018-08-10T08:53:44.171Z,101020.84
2018-08-10T08:56:18.583Z,101024.45
2018-08-10T08:58:48.415Z,101043.47
2018-08-10T09:01:17.466Z,101035.83
2018-08-10T09:05:03.892Z,101045.86
2018-08-10T09:07:32.741Z,101057.63
2018-08-10T09:10:02.139Z,101056.36
2018-08-10T09:12:31.113Z,101062.78
2018-08-10T09:15:02.047Z,101070.81
2018-08-10T09:17:30.681Z,101075.05
2018-08-10T09:19:59.019Z,101081.86
2018-08-10T09:22:27.494Z,101076.25
2018-08-10T09:24:55.950Z,101077.80
2018-08-10T09:27:24.530Z,101071.35
2018-08-10T09:29:52.899Z,101074.11
2018-08-10T09:32:21.354Z,101082.35
2018-08-10T09:34:49.718Z,101075.29
2018-08-10T09:37:18.159Z,101076.06
2018-08-10T09:39:46.509Z,101069.72
2018-08-10T09:42:14.959Z,101073.48
2018-08-10T09:44:43.285Z,101075.38
2018-08-10T09:47:11.716Z,101067.05
2018-08-10T09:49:42.998Z,101070.13
2018-08-10T09:52:11.460Z,101073.69
2018-08-10T09:55:44.951Z,101066.58
2018-08-10T09:58:15.212Z,101068.89
2018-08-10T10:00:48.757Z,101063.15
2018-08-10T10:03:18.555Z,101064.63
2018-08-10T10:05:47.747Z,101070.63
2018-08-10T10:08:16.727Z,101064.45
2018-08-10T10:10:45.498Z,101077.52
2018-08-10T10:13:13.835Z,101077.42
2018-08-10T10:15:42.802Z,101069.59
2018-08-10T10:18:12.543Z,101075.53
2018-08-10T10:20:40.947Z,101082.25
2018-08-10T10:23:09.499Z,101073.80
2018-08-10T10:25:37.860Z,101077.82
2018-08-10T10:28:06.462Z,101073.01
2018-08-10T10:30:34.862Z,101075.92
2018-08-10T10:33:03.262Z,101070.92
2018-08-10T10:35:31.697Z,101066.69
2018-08-10T10:38:00.104Z,101070.67
2018-08-10T10:40:28.515Z,101079.21
2018-08-10T10:42:57.053Z,101080.58
2018-08-10T10:45:25.425Z,101071.55
2018-08-10T10:47:53.815Z,101077.42
2018-08-10T10:50:22.192Z,101079.08
2018-08-10T10:52:50.900Z,101082.86
2018-08-10T10:55:19.375Z,101080.98
2018-08-10T10:57:48.143Z,101075.25
2018-08-10T11:00:18.503Z,101076.91
2018-08-10T11:02:47.450Z,101067.91
2018-08-10T11:05:15.927Z,101073.49
2018-08-10T11:07:44.580Z,101080.87
2018-08-10T11:10:14.731Z,101072.98
2018-08-10T11:12:43.100Z,101077.15
2018-08-10T11:15:12.521Z,101073.86
2018-08-10T11:17:40.972Z,101072.05
2018-08-10T11:20:11.142Z,101075.92
2018-08-10T11:22:40.653Z,101077.27
2018-08-10T11:25:10.994Z,101066.83
2018-08-10T11:27:40.055Z,101067.59
2018-08-10T11:30:09.546Z,101080.34
2018-08-10T11:32:38.262Z,101072.91
2018-08-10T11:35:13.413Z,101078.45
2018-08-10T11:37:43.100Z,101075.05
2018-08-10T11:40:13.523Z,101073.45
2018-08-10T11:42:42.820Z,101083.48
2018-08-10T11:45:13.803Z,101077.33
2018-08-10T11:47:42.882Z,101075.66
2018-08-10T11:50:11.378Z,101075.94
2018-08-10T11:52:40.215Z,101077.47
2018-08-10T11:55:10.898Z,101083.48
2018-08-10T11:57:40.219Z,101079.23
2018-08-10T12:00:10.667Z,101082.15
2018-08-10T12:02:39.309Z,101081.11
2018-08-10T12:05:09.321Z,101084.87
2018-08-10T12:07:37.726Z,101076.66
2018-08-10T12:10:06.887Z,101086.34
2018-08-10T12:12:35.447Z,101076.45
2018-08-10T12:15:04.282Z,101077.11
2018-08-10T12:17:33.340Z,101083.27
2018-08-10T12:20:01.777Z,101078.33
2018-08-10T12:22:30.230Z,101082.34
2018-08-10T12:24:58.712Z,101076.75
2018-08-10T12:27:27.024Z,101062.07
2018-08-10T12:29:55.591Z,101070.11
2018-08-10T12:32:24.154Z,101069.37
2018-08-10T12:34:52.588Z,101065.62
2018-08-10T12:37:21.116Z,101074.39
2018-08-10T12:39:49.566Z,101074.20
2018-08-10T12:42:17.961Z,101070.38
2018-08-10T12:44:46.339Z,101072.52
2018-08-10T12:47:14.802Z,101075.01
2018-08-10T12:49:43.323Z,101067.09
2018-08-10T12:52:11.846Z,101068.36
2018-08-10T12:54:40.389Z,101067.14
2018-08-10T12:57:08.893Z,101072.04
2018-08-10T12:59:37.279Z,101076.16
2018-08-10T13:02:05.924Z,101076.42
2018-08-10T13:04:34.340Z,101072.04
2018-08-10T13:07:03.098Z,101069.73
2018-08-10T13:09:31.597Z,101071.98
2018-08-10T13:12:00.079Z,101072.54
2018-08-10T13:14:28.568Z,101063.95
2018-08-10T13:16:57.044Z,101066.38
2018-08-10T13:19:25.406Z,101070.95
2018-08-10T13:21:53.915Z,101076.77
2018-08-10T13:24:22.221Z,101070.28
2018-08-10T13:26:50.671Z,101070.30
2018-08-10T13:29:19.199Z,101072.62
2018-08-10T13:31:47.652Z,101071.78
2018-08-10T13:34:16.330Z,101067.11
2018-08-10T13:36:44.902Z,101075.14
2018-08-10T13:39:13.490Z,101072.64
2018-08-10T13:41:42.835Z,101064.98
2018-08-10T13:44:11.865Z,101073.09
2018-08-10T13:46:40.392Z,101063.73
2018-08-10T13:49:08.995Z,101059.86
2018-08-10T13:51:37.437Z,101064.02
2018-08-10T13:54:06.481Z,101058.53
2018-08-10T13:56:35.384Z,101060.96
2018-08-10T13:59:03.762Z,101055.34
2018-08-10T14:01:32.986Z,101052.31
2018-08-10T14:04:01.502Z,101052.49
2018-08-10T14:06:30.477Z,101053.28
2018-08-10T14:08:59.465Z,101045.00
2018-08-10T14:11:28.516Z,101040.59
2018-08-10T14:13:56.895Z,101046.48
2018-08-10T14:16:25.432Z,101038.64
2018-08-10T14:18:54.026Z,101044.13
2018-08-10T14:21:22.541Z,101037.95
2018-08-10T14:23:50.940Z,101038.09
2018-08-10T14:26:19.317Z,101041.91
2018-08-10T14:28:48.135Z,101034.78
2018-08-10T14:31:16.515Z,101040.78
2018-08-10T14:33:44.875Z,101031.03
2018-08-10T14:36:13.289Z,101031.44
2018-08-10T14:38:41.749Z,101030.52
2018-08-10T14:41:10.185Z,101030.22
2018-08-10T14:43:38.589Z,101022.10
2018-08-10T14:46:07.020Z,101018.22
2018-08-10T14:48:35.410Z,101024.55
2018-08-10T14:51:03.918Z,101019.14
2018-08-10T14:53:32.593Z,101015.48
2018-08-10T14:56:01.177Z,101024.88
2018-08-10T14:58:29.630Z,101017.16
2018-08-10T15:00:57.980Z,101014.84
2018-08-10T15:03:26.362Z,101015.23
2018-08-10T15:05:54.738Z,101011.86
2018-08-10T15:08:23.050Z,101013.16
2018-08-10T15:10:51.431Z,101012.62
2018-08-10T15:13:19.800Z,101014.47
2018-08-10T15:15:48.185Z,101013.55
2018-08-10T15:18:16.602Z,101006.89
2018-08-10T15:20:45.059Z,101008.38
2018-08-10T15:23:13.501Z,101010.34
2018-08-10T15:25:41.910Z,101002.59
2018-08-10T15:28:10.285Z,100994.19
2018-08-10T15:30:38.674Z,101000.66
2018-08-10T15:33:07.127Z,101002.97
2018-08-10T15:35:35.560Z,101001.58
2018-08-10T15:38:04.058Z,101004.39
2018-08-10T15:40:32.474Z,101006.17
2018-08-10T15:43:00.894Z,100998.89
2018-08-10T15:45:29.249Z,101004.70
2018-08-10T15:47:57.624Z,100999.09
2018-08-10T15:50:26.359Z,101003.30
2018-08-10T15:52:54.704Z,100993.23
2018-08-10T15:55:23.167Z,100997.51
2018-08-10T15:57:51.514Z,100993.40
2018-08-10T16:00:23.112Z,100993.41
2018-08-10T16:02:51.536Z,100994.35
2018-08-10T16:05:19.953Z,100994.72
2018-08-10T16:07:48.391Z,100983.23
2018-08-10T16:10:17.183Z,100982.76
2018-08-10T16:12:45.946Z,100981.26
2018-08-10T16:15:15.575Z,100977.88
2018-08-10T16:17:43.998Z,100975.53
2018-08-10T16:20:14.570Z,100975.27
2018-08-10T16:22:42.948Z,100975.14
2018-08-10T16:25:12.316Z,100973.57
2018-08-10T16:27:41.618Z,100975.35
2018-08-10T16:30:11.958Z,100974.70
2018-08-10T16:32:41.429Z,100967.80
2018-08-10T16:35:11.889Z,100975.26
2018-08-10T16:37:41.480Z,100971.74
2018-08-10T16:40:10.892Z,100974.75
2018-08-10T16:42:40.479Z,100972.16
2018-08-10T16:45:09.588Z,100970.11
2018-08-10T16:47:38.984Z,100967.28
2018-08-10T16:50:10.031Z,100960.01
2018-08-10T16:52:38.547Z,100962.04
2018-08-10T16:55:09.295Z,100958.31
2018-08-10T16:57:38.377Z,100959.35
2018-08-10T17:00:08.138Z,100956.07
2018-08-10T17:02:36.646Z,100959.05
2018-08-10T17:05:05.994Z,100956.99
2018-08-10T17:07:34.395Z,100958.30
2018-08-10T17:10:02.758Z,100957.75
2018-08-10T17:12:31.164Z,100962.77
2018-08-10T17:14:59.584Z,100955.30
2018-08-10T17:17:28.093Z,100960.13
2018-08-10T17:19:56.607Z,100958.45
2018-08-10T17:22:25.336Z,100956.96
2018-08-10T17:24:53.711Z,100958.53
2018-08-10T17:27:22.095Z,100955.92
2018-08-10T17:29:50.507Z,100950.67
2018-08-10T17:32:18.896Z,100959.64
2018-08-10T17:34:47.295Z,100949.36
2018-08-10T17:37:15.798Z,100947.78
2018-08-10T17:39:44.466Z,100948.61
2018-08-10T17:42:13.088Z,100944.77
2018-08-10T17:44:41.449Z,100948.59
2018-08-10T17:47:09.827Z,100946.07
2018-08-10T17:49:38.181Z,100945.68
2018-08-10T17:52:06.612Z,100942.55
2018-08-10T17:54:35.115Z,100945.98
2018-08-10T17:57:03.537Z,100943.46
2018-08-10T17:59:31.942Z,100947.42
2018-08-10T18:02:00.383Z,100950.97
2018-08-10T18:04:28.763Z,100943.34
2018-08-10T18:06:57.107Z,100943.78
2018-08-10T18:09:25.542Z,100944.44
2018-08-10T18:11:53.957Z,100947.48
2018-08-10T18:14:23.193Z,100945.07
2018-08-10T18:16:51.599Z,100945.62
2018-08-10T18:19:20.052Z,100944.58
2018-08-10T18:21:48.482Z,100945.81
2018-08-10T18:24:17.317Z,100943.00
2018-08-10T18:26:46.290Z,100948.91
2018-08-10T18:29:15.542Z,100946.57
2018-08-10T18:31:44.576Z,100951.58
2018-08-10T18:34:13.333Z,100945.24
2018-08-10T18:36:41.727Z,100953.33
2018-08-10T18:39:12.430Z,100954.49
2018-08-10T18:41:41.836Z,100952.70
2018-08-10T18:44:11.094Z,100952.52
2018-08-10T18:46:40.240Z,100955.72
2018-08-10T18:49:09.908Z,100956.04
2018-08-10T18:51:38.532Z,100955.78
2018-08-10T18:54:07.491Z,100955.27
2018-08-10T18:56:36.318Z,100951.30
2018-08-10T18:59:05.032Z,100954.20
2018-08-10T19:01:33.782Z,100954.91
2018-08-10T19:04:02.292Z,100954.55
2018-08-10T19:06:30.831Z,100955.73
2018-08-10T19:09:00.513Z,100957.30
2018-08-10T19:11:29.023Z,100961.04
2018-08-10T19:13:58.136Z,100960.34
2018-08-10T19:16:26.868Z,100956.00
2018-08-10T19:18:55.359Z,100958.80
2018-08-10T19:21:23.889Z,100957.36
2018-08-10T19:23:52.340Z,100955.23
2018-08-10T19:26:22.694Z,100955.66
2018-08-10T19:28:54.529Z,100953.06
2018-08-10T19:33:54.187Z,100960.02
2018-08-10T19:36:23.458Z,100966.73
2018-08-10T19:38:52.248Z,100964.34
2018-08-10T19:41:20.944Z,100967.31
2018-08-10T19:43:49.496Z,100967.31
2018-08-10T19:46:18.198Z,100963.88
2018-08-10T19:48:46.662Z,100965.77
2018-08-10T19:51:15.076Z,100966.83
2018-08-10T19:53:45.833Z,100972.55
2018-08-10T19:56:14.576Z,100967.35
2018-08-10T19:58:43.144Z,100958.95
2018-08-10T20:01:11.935Z,100962.44
2018-08-10T20:03:40.839Z,100966.73
2018-08-10T20:06:09.309Z,100968.09
2018-08-10T20:08:41.225Z,100965.31
2018-08-10T20:11:17.990Z,100962.59
2018-08-10T20:13:50.180Z,100962.10
2018-08-10T20:17:03.238Z,100964.33
2018-08-10T20:19:36.623Z,100967.26
2018-08-10T20:22:14.797Z,100962.19
2018-08-10T20:24:50.542Z,100963.59
2018-08-10T20:27:20.952Z,100959.27
2018-08-10T20:29:52.411Z,100956.42
2018-08-10T20:32:25.035Z,100955.66
2018-08-10T20:34:53.458Z,100952.19
2018-08-10T20:37:21.857Z,100958.11
2018-08-10T20:39:50.925Z,100955.00
2018-08-10T20:42:19.310Z,100956.97
2018-08-10T20:44:48.445Z,100960.75
2018-08-10T20:47:16.949Z,100954.01
2018-08-10T20:49:45.361Z,100958.22
2018-08-10T20:52:15.445Z,100956.50
2018-08-10T20:54:44.136Z,100957.67
2018-08-10T20:57:12.878Z,100953.55
2018-08-10T20:59:41.471Z,100956.25
2018-08-10T21:02:10.121Z,100959.94
2018-08-10T21:04:38.486Z,100953.66
2018-08-10T21:07:07.122Z,100957.42
2018-08-10T21:09:35.519Z,100957.81
2018-08-10T21:12:03.911Z,100959.66
2018-08-10T21:14:32.259Z,100962.48
2018-08-10T21:17:00.605Z,100958.01
2018-08-10T21:19:28.994Z,100954.60
2018-08-10T21:21:57.393Z,100955.34
2018-08-10T21:24:25.805Z,100952.45
2018-08-10T21:26:54.293Z,100958.20
2018-08-10T21:29:22.643Z,100953.81
2018-08-10T21:31:51.000Z,100949.24
2018-08-10T21:34:19.398Z,100948.10
2018-08-10T21:36:48.054Z,100952.77
2018-08-10T21:39:16.460Z,100949.58
2018-08-10T21:41:44.882Z,100946.10
2018-08-10T21:44:13.275Z,100949.35
2018-08-10T21:46:41.721Z,100952.20
2018-08-10T21:49:10.540Z,100953.31
2018-08-10T21:51:38.917Z,100956.30
2018-08-10T21:54:07.269Z,100948.87
2018-08-10T21:56:35.579Z,100946.23
2018-08-10T21:59:04.014Z,100946.76
2018-08-10T22:01:32.543Z,100950.91
2018-08-10T22:04:02.710Z,100945.36
2018-08-10T22:06:31.901Z,100950.75
2018-08-10T22:09:00.377Z,100946.13
2018-08-10T22:11:28.761Z,100951.17
2018-08-10T22:14:02.460Z,100945.75
2018-08-10T22:16:36.130Z,100935.66
2018-08-10T22:19:09.885Z,100942.97
2018-08-10T22:21:38.322Z,100941.63
2018-08-10T22:24:06.760Z,100938.59
2018-08-10T22:26:35.128Z,100941.97
2018-08-10T22:29:04.091Z,100948.52
2018-08-10T22:31:32.575Z,100948.35
2018-08-10T22:34:01.270Z,100944.97
2018-08-10T22:36:29.733Z,100943.89
2018-08-10T22:38:58.154Z,100944.91
2018-08-10T22:41:26.515Z,100940.31
2018-08-10T22:43:54.869Z,100938.11
2018-08-10T22:46:23.311Z,100937.77
2018-08-10T22:48:51.641Z,100932.98
2018-08-10T22:51:20.006Z,100928.68
2018-08-10T22:53:48.406Z,100931.31
2018-08-10T22:56:16.819Z,100925.96
2018-08-10T22:58:45.218Z,100920.22
2018-08-10T23:01:13.598Z,100920.42
2018-08-10T23:03:41.980Z,100916.96
2018-08-10T23:06:10.610Z,100916.17
2018-08-10T23:08:39.037Z,100912.61
2018-08-10T23:11:07.411Z,100909.66
2018-08-10T23:13:35.913Z,100900.86
2018-08-10T23:16:04.382Z,100899.19
2018-08-10T23:18:32.760Z,100898.81
2018-08-10T23:21:01.148Z,100891.27
2018-08-10T23:23:29.594Z,100893.47
2018-08-10T23:25:57.940Z,100891.46
2018-08-10T23:28:26.318Z,100887.25
2018-08-10T23:30:54.828Z,100882.92
2018-08-10T23:33:23.464Z,100881.17
2018-08-10T23:35:52.070Z,100875.22
2018-08-10T23:38:20.490Z,100877.55
2018-08-10T23:40:48.872Z,100877.26
2018-08-10T23:43:17.333Z,100870.42
2018-08-10T23:45:45.728Z,100872.25
2018-08-10T23:48:14.115Z,100870.32
2018-08-10T23:50:42.496Z,100863.87
2018-08-10T23:53:10.870Z,100861.73
2018-08-10T23:55:39.268Z,100857.61
2018-08-10T23:58:07.835Z,100862.81
